createdAt,value
2019-02-04T00:01:56.488Z,99781.91
2019-02-04T00:04:25.440Z,99785.74
2019-02-04T00:06:54.362Z,99785.52
2019-02-04T00:09:23.236Z,99787.03
2019-02-04T00:11:52.459Z,99778.92
2019-02-04T00:14:21.418Z,99781.13
2019-02-04T00:16:51.206Z,99781.09
2019-02-04T00:19:20.068Z,99780.21
2019-02-04T00:21:48.919Z,99781.20
2019-02-04T00:24:17.708Z,99793.66
2019-02-04T00:26:51.658Z,99787.88
2019-02-04T00:29:17.251Z,99799.22
2019-02-04T00:31:46.034Z,99799.22
2019-02-04T00:34:14.808Z,99800.56
2019-02-04T00:36:43.668Z,99797.72
2019-02-04T00:39:12.601Z,99791.67
2019-02-04T00:41:41.669Z,99796.14
2019-02-04T00:44:10.456Z,99797.83
2019-02-04T00:46:39.255Z,99800.25
2019-02-04T00:49:08.105Z,99797.92
2019-02-04T00:51:36.889Z,99804.03
2019-02-04T00:54:06.124Z,99799.33
2019-02-04T00:56:35.264Z,99804.28
2019-02-04T00:59:04.705Z,99799.66
2019-02-04T01:01:33.649Z,99800.08
2019-02-04T01:04:02.713Z,99802.13
2019-02-04T01:06:31.570Z,99801.27
2019-02-04T01:09:00.512Z,99807.23
2019-02-04T01:11:29.704Z,99818.58
2019-02-04T01:13:58.633Z,99817.28
2019-02-04T01:16:27.539Z,99822.91
2019-02-04T01:18:56.297Z,99822.91
2019-02-04T01:21:25.162Z,99824.39
2019-02-04T01:23:53.940Z,99838.30
2019-02-04T01:26:23.136Z,99825.37
2019-02-04T01:28:52.008Z,99834.45
2019-02-04T01:31:20.900Z,99838.12
2019-02-04T01:33:50.524Z,99836.13
2019-02-04T01:36:19.414Z,99834.92
2019-02-04T01:38:48.207Z,99840.73
2019-02-04T01:41:17.071Z,99835.59
2019-02-04T01:43:46.147Z,99840.57
2019-02-04T01:46:14.928Z,99848.98
2019-02-04T01:48:43.709Z,99840.59
2019-02-04T01:51:12.507Z,99842.36
2019-02-04T01:53:41.279Z,99841.27
2019-02-04T01:56:10.082Z,99849.63
2019-02-04T01:58:38.854Z,99848.99
2019-02-04T02:01:07.712Z,99855.57
2019-02-04T02:03:36.572Z,99852.78
2019-02-04T02:06:05.489Z,99865.75
2019-02-04T02:08:34.403Z,99860.66
2019-02-04T02:11:03.317Z,99866.84
2019-02-04T02:13:32.204Z,99859.68
2019-02-04T02:16:01.084Z,99857.34
2019-02-04T02:18:30.000Z,99864.87
2019-02-04T02:20:58.773Z,99872.72
2019-02-04T02:23:27.655Z,99873.63
2019-02-04T02:25:56.520Z,99873.81
2019-02-04T02:28:25.309Z,99870.70
2019-02-04T02:30:55.190Z,99873.58
2019-02-04T02:33:24.159Z,99885.75
2019-02-04T02:35:52.945Z,99888.82
2019-02-04T02:38:22.205Z,99883.70
2019-02-04T02:40:51.071Z,99878.78
2019-02-04T02:43:19.876Z,99878.09
2019-02-04T02:45:48.687Z,99877.70
2019-02-04T02:48:17.679Z,99881.98
2019-02-04T02:50:46.457Z,99882.84
2019-02-04T02:53:15.278Z,99880.80
2019-02-04T02:55:44.055Z,99882.70
2019-02-04T02:58:12.842Z,99884.95
2019-02-04T03:00:41.694Z,99884.09
2019-02-04T03:03:10.561Z,99897.50
2019-02-04T03:05:39.396Z,99900.91
2019-02-04T03:08:08.341Z,99897.50
2019-02-04T03:10:37.197Z,99906.55
2019-02-04T03:13:06.344Z,99905.39
2019-02-04T03:15:35.335Z,99893.22
2019-02-04T03:18:04.319Z,99890.08
2019-02-04T03:20:33.087Z,99890.00
2019-02-04T03:23:02.129Z,99889.81
2019-02-04T03:25:31.166Z,99896.77
2019-02-04T03:28:00.032Z,99901.97
2019-02-04T03:30:31.414Z,99909.37
2019-02-04T03:33:00.345Z,99904.37
2019-02-04T03:35:29.138Z,99906.52
2019-02-04T03:37:58.409Z,99915.84
2019-02-04T03:40:29.429Z,99922.67
2019-02-04T03:42:58.388Z,99926.55
2019-02-04T03:45:27.606Z,99924.74
2019-02-04T03:48:04.128Z,99925.02
2019-02-04T03:50:27.952Z,99927.48
2019-02-04T03:52:57.728Z,99919.73
2019-02-04T03:55:26.774Z,99921.84
2019-02-04T03:57:55.738Z,99922.82
2019-02-04T04:00:31.578Z,99921.57
2019-02-04T04:03:00.388Z,99926.89
2019-02-04T04:05:29.712Z,99928.37
2019-02-04T04:07:58.591Z,99918.20
2019-02-04T04:10:28.517Z,99921.29
2019-02-04T04:12:57.333Z,99923.88
2019-02-04T04:15:26.267Z,99920.58
2019-02-04T04:17:55.140Z,99915.63
2019-02-04T04:20:24.198Z,99923.23
2019-02-04T04:22:53.168Z,99918.13
2019-02-04T04:25:22.042Z,99925.56
2019-02-04T04:27:50.965Z,99931.60
2019-02-04T04:30:22.492Z,99934.91
2019-02-04T04:32:51.431Z,99936.30
2019-02-04T04:35:20.392Z,99937.41
2019-02-04T04:37:49.367Z,99942.58
2019-02-04T04:40:18.513Z,99939.67
2019-02-04T04:42:47.660Z,99945.73
2019-02-04T04:45:18.802Z,99948.34
2019-02-04T04:47:48.028Z,99946.69
2019-02-04T04:50:17.387Z,99939.77
2019-02-04T04:52:46.672Z,99943.51
2019-02-04T04:55:18.519Z,99941.72
2019-02-04T04:57:47.320Z,99939.31
2019-02-04T05:00:18.751Z,99944.70
2019-02-04T05:02:47.689Z,99941.88
2019-02-04T05:05:16.726Z,99937.69
2019-02-04T05:07:45.602Z,99940.47
2019-02-04T05:10:16.406Z,99944.80
2019-02-04T05:12:45.355Z,99936.85
2019-02-04T05:15:16.906Z,99935.26
2019-02-04T05:17:45.892Z,99935.83
2019-02-04T05:20:15.500Z,99935.83
2019-02-04T05:22:44.360Z,99932.06
2019-02-04T05:25:13.931Z,99931.20
2019-02-04T05:27:42.820Z,99934.00
2019-02-04T05:30:14.545Z,99935.25
2019-02-04T05:32:43.427Z,99944.80
2019-02-04T05:35:12.562Z,99945.23
2019-02-04T05:37:41.422Z,99943.48
2019-02-04T05:40:11.764Z,99939.27
2019-02-04T05:42:40.624Z,99941.19
2019-02-04T05:45:10.564Z,99945.76
2019-02-04T05:47:39.431Z,99944.61
2019-02-04T05:50:11.147Z,99956.92
2019-02-04T05:52:40.019Z,99955.41
2019-02-04T05:55:09.893Z,99952.25
2019-02-04T05:57:39.070Z,99957.72
2019-02-04T06:00:09.356Z,99957.91
2019-02-04T06:02:38.356Z,99958.83
2019-02-04T06:05:08.673Z,99965.03
2019-02-04T06:07:37.652Z,99971.20
2019-02-04T06:10:07.589Z,99968.69
2019-02-04T06:12:36.739Z,99968.21
2019-02-04T06:15:07.244Z,99969.07
2019-02-04T06:17:36.040Z,99976.41
2019-02-04T06:20:06.699Z,99975.22
2019-02-04T06:22:35.709Z,99973.07
2019-02-04T06:25:05.098Z,99972.67
2019-02-04T06:27:33.902Z,99972.23
2019-02-04T06:30:03.735Z,99978.26
2019-02-04T06:32:34.564Z,99981.77
2019-02-04T06:35:04.303Z,99978.89
2019-02-04T06:37:33.863Z,99980.63
2019-02-04T06:40:04.575Z,99972.89
2019-02-04T06:42:34.035Z,99975.07
2019-02-04T06:45:03.028Z,99974.19
2019-02-04T06:47:31.830Z,99974.19
2019-02-04T06:50:00.677Z,99982.38
2019-02-04T06:52:29.479Z,99979.72
2019-02-04T06:54:58.659Z,99979.70
2019-02-04T06:57:27.450Z,99975.59
2019-02-04T06:59:56.276Z,99982.41
2019-02-04T07:02:25.071Z,99985.84
2019-02-04T07:04:53.888Z,99983.45
2019-02-04T07:07:22.695Z,99974.69
2019-02-04T07:09:52.017Z,99981.23
2019-02-04T07:12:20.820Z,99977.42
2019-02-04T07:14:49.613Z,99978.69
2019-02-04T07:17:18.546Z,99974.61
2019-02-04T07:19:47.339Z,99978.72
2019-02-04T07:22:16.209Z,99982.88
2019-02-04T07:24:44.997Z,99982.36
2019-02-04T07:27:13.787Z,99987.75
2019-02-04T07:29:42.577Z,99990.09
2019-02-04T07:32:11.524Z,99988.13
2019-02-04T07:34:40.476Z,99997.97
2019-02-04T07:37:09.350Z,100000.44
2019-02-04T07:39:38.140Z,100004.25
2019-02-04T07:42:07.210Z,100002.21
2019-02-04T07:44:36.676Z,99994.02
2019-02-04T07:47:05.735Z,99990.48
2019-02-04T07:49:35.620Z,99991.38
2019-02-04T07:52:04.656Z,99994.69
2019-02-04T07:54:33.516Z,99995.98
2019-02-04T07:57:02.602Z,100003.98
2019-02-04T07:59:31.477Z,100004.94
2019-02-04T08:02:00.518Z,100012.37
2019-02-04T08:04:29.314Z,100010.13
2019-02-04T08:06:58.206Z,100011.85
2019-02-04T08:09:27.075Z,100006.72
2019-02-04T08:11:56.172Z,100017.84
2019-02-04T08:14:24.998Z,100015.69
2019-02-04T08:16:53.900Z,100019.57
2019-02-04T08:19:24.440Z,100017.39
2019-02-04T08:21:53.254Z,100032.42
2019-02-04T08:24:22.040Z,100028.92
2019-02-04T08:26:51.204Z,100029.75
2019-02-04T08:29:20.149Z,100037.41
2019-02-04T08:31:49.104Z,100032.28
2019-02-04T08:34:17.965Z,100035.55
2019-02-04T08:36:46.825Z,100031.94
2019-02-04T08:39:15.746Z,100028.77
2019-02-04T08:41:44.899Z,100028.98
2019-02-04T08:44:13.953Z,100035.25
2019-02-04T08:46:42.733Z,100030.41
2019-02-04T08:49:11.545Z,100031.13
2019-02-04T08:51:40.424Z,100025.32
2019-02-04T08:54:09.931Z,100029.92
2019-02-04T08:56:38.794Z,100031.42
2019-02-04T08:59:07.613Z,100026.74
2019-02-04T09:01:37.577Z,100015.67
2019-02-04T09:04:06.629Z,100028.35
2019-02-04T09:06:35.601Z,100031.68
2019-02-04T09:09:08.057Z,100033.95
2019-02-04T09:11:37.471Z,100028.03
2019-02-04T09:14:06.977Z,100032.70
2019-02-04T09:16:35.812Z,100030.77
2019-02-04T09:19:05.065Z,100033.31
2019-02-04T09:21:34.025Z,100021.09
2019-02-04T09:24:02.973Z,100010.73
2019-02-04T09:26:31.845Z,100010.73
2019-02-04T09:29:00.940Z,100006.80
2019-02-04T09:31:29.818Z,100001.07
2019-02-04T09:33:58.777Z,100007.90
2019-02-04T09:36:27.713Z,100006.22
2019-02-04T09:38:56.686Z,99994.42
2019-02-04T09:41:25.554Z,99989.53
2019-02-04T09:43:54.788Z,99986.59
2019-02-04T09:46:23.667Z,99990.81
2019-02-04T09:48:52.865Z,99984.97
2019-02-04T09:51:21.723Z,99987.05
2019-02-04T09:53:50.515Z,99986.22
2019-02-04T09:56:19.399Z,99984.55
2019-02-04T09:58:48.212Z,99989.58
2019-02-04T10:01:17.174Z,99986.22
2019-02-04T10:03:45.975Z,99992.23
2019-02-04T10:06:14.916Z,99994.61
2019-02-04T10:08:43.792Z,99993.64
2019-02-04T10:11:13.453Z,99992.34
2019-02-04T10:13:43.178Z,99991.91
2019-02-04T10:16:12.347Z,99986.46
2019-02-04T10:18:41.279Z,99982.83
2019-02-04T10:21:10.339Z,99991.59
2019-02-04T10:23:39.169Z,99995.43
2019-02-04T10:26:07.966Z,100001.16
2019-02-04T10:28:37.133Z,99985.26
2019-02-04T10:31:06.084Z,99993.03
2019-02-04T10:33:35.015Z,99987.81
2019-02-04T10:36:03.919Z,99987.05
2019-02-04T10:38:32.654Z,99985.32
2019-02-04T10:41:01.619Z,99983.22
2019-02-04T10:43:30.981Z,99975.59
2019-02-04T10:45:59.814Z,99976.22
2019-02-04T10:48:28.652Z,99974.22
2019-02-04T10:50:57.651Z,99964.94
2019-02-04T10:53:26.487Z,99969.70
2019-02-04T10:55:55.375Z,99962.52
2019-02-04T10:58:24.298Z,99956.75
2019-02-04T11:00:53.330Z,99947.09
2019-02-04T11:03:22.321Z,99950.61
2019-02-04T11:05:51.379Z,99952.34
2019-02-04T11:08:20.284Z,99943.09
2019-02-04T11:10:49.143Z,99947.06
2019-02-04T11:13:19.015Z,99942.05
2019-02-04T11:15:48.706Z,99934.84
2019-02-04T11:18:17.931Z,99926.77
2019-02-04T11:20:57.707Z,99921.56
2019-02-04T11:23:17.797Z,99913.71
2019-02-04T11:25:46.917Z,99913.88
2019-02-04T11:28:16.457Z,99903.56
2019-02-04T11:30:49.118Z,99900.23
2019-02-04T11:33:18.134Z,99898.42
2019-02-04T11:35:47.186Z,99884.77
2019-02-04T11:38:16.535Z,99884.77
2019-02-04T11:40:46.389Z,99878.81
2019-02-04T11:43:15.603Z,99880.70
2019-02-04T11:45:44.869Z,99882.19
2019-02-04T11:48:14.741Z,99873.78
2019-02-04T11:50:43.934Z,99875.08
2019-02-04T11:53:12.957Z,99870.52
2019-02-04T11:55:41.884Z,99866.84
2019-02-04T11:58:10.913Z,99859.47
2019-02-04T12:00:40.255Z,99853.61
2019-02-04T12:03:10.707Z,99845.83
2019-02-04T12:05:39.629Z,99850.03
2019-02-04T12:08:08.886Z,99846.38
2019-02-04T12:10:58.400Z,99840.45
2019-02-04T12:13:27.184Z,99831.13
2019-02-04T12:15:58.597Z,99832.06
2019-02-04T12:18:27.460Z,99824.41
2019-02-04T12:20:56.449Z,99819.65
2019-02-04T12:23:25.524Z,99815.81
2019-02-04T12:25:54.319Z,99807.55
2019-02-04T12:28:23.219Z,99807.70
2019-02-04T12:30:52.093Z,99804.97
2019-02-04T12:33:21.045Z,99811.67
2019-02-04T12:35:49.964Z,99807.80
2019-02-04T12:38:19.130Z,99808.50
2019-02-04T12:40:47.881Z,99805.19
2019-02-04T12:43:21.030Z,99794.30
2019-02-04T12:45:48.432Z,99790.73
2019-02-04T12:48:17.973Z,99793.94
2019-02-04T12:50:46.917Z,99792.67
2019-02-04T12:53:15.679Z,99792.55
2019-02-04T12:55:44.539Z,99790.36
2019-02-04T12:58:13.462Z,99789.95
2019-02-04T13:00:42.397Z,99790.77
2019-02-04T13:03:11.342Z,99789.69
2019-02-04T13:05:45.895Z,99786.67
2019-02-04T13:08:14.840Z,99789.18
2019-02-04T13:10:43.816Z,99786.84
2019-02-04T13:13:15.106Z,99787.70
2019-02-04T13:15:44.090Z,99785.55
2019-02-04T13:18:13.611Z,99785.32
2019-02-04T13:20:42.892Z,99779.81
2019-02-04T13:23:11.829Z,99785.38
2019-02-04T13:25:40.763Z,99782.84
2019-02-04T13:28:16.348Z,99775.33
2019-02-04T13:30:45.307Z,99779.02
2019-02-04T13:33:14.416Z,99780.36
2019-02-04T13:35:43.280Z,99772.91
2019-02-04T13:38:12.399Z,99776.14
2019-02-04T13:40:44.476Z,99770.20
2019-02-04T13:43:13.813Z,99769.35
2019-02-04T13:45:43.012Z,99769.98
2019-02-04T13:48:12.610Z,99765.97
2019-02-04T13:50:41.537Z,99773.59
2019-02-04T13:53:10.806Z,99769.41
2019-02-04T13:55:40.296Z,99765.96
2019-02-04T13:58:09.549Z,99757.56
2019-02-04T14:00:38.891Z,99757.03
2019-02-04T14:03:08.755Z,99768.80
2019-02-04T14:05:37.927Z,99763.78
2019-02-04T14:08:07.392Z,99767.88
2019-02-04T14:10:41.459Z,99772.20
2019-02-04T14:13:10.825Z,99767.55
2019-02-04T14:15:40.766Z,99770.68
2019-02-04T14:18:10.328Z,99765.47
2019-02-04T14:20:39.255Z,99771.80
2019-02-04T14:23:08.193Z,99765.16
2019-02-04T14:25:37.320Z,99762.96
2019-02-04T14:28:06.560Z,99759.23
2019-02-04T14:30:37.494Z,99749.55
2019-02-04T14:33:07.021Z,99754.40
2019-02-04T14:35:36.250Z,99749.30
2019-02-04T14:38:06.987Z,99750.45
2019-02-04T14:40:36.121Z,99746.05
2019-02-04T14:43:35.614Z,99746.97
2019-02-04T14:46:29.566Z,99748.99
2019-02-04T14:49:40.379Z,99752.97
2019-02-04T14:52:48.887Z,99748.36
2019-02-04T14:56:00.917Z,99749.55
2019-02-04T14:58:50.758Z,99745.41
2019-02-04T15:01:56.160Z,99756.78
2019-02-04T15:05:02.105Z,99756.63
2019-02-04T15:08:04.270Z,99754.55
2019-02-04T15:11:16.462Z,99756.19
2019-02-04T15:14:29.652Z,99745.27
2019-02-04T15:17:19.439Z,99748.39
2019-02-04T15:20:12.278Z,99759.55
2019-02-04T15:23:19.071Z,99758.41
2019-02-04T15:26:29.902Z,99753.37
2019-02-04T15:29:20.927Z,99756.98
2019-02-04T15:32:15.736Z,99755.05
2019-02-04T15:35:37.743Z,99748.14
2019-02-04T15:39:12.084Z,99753.73
2019-02-04T15:42:31.831Z,99752.55
2019-02-04T15:45:27.736Z,99748.86
2019-02-04T15:48:07.028Z,99748.70
2019-02-04T15:50:45.237Z,99746.64
2019-02-04T15:53:14.096Z,99751.19
2019-02-04T15:55:43.149Z,99743.22
2019-02-04T15:58:12.117Z,99746.58
2019-02-04T16:00:40.925Z,99740.09
2019-02-04T16:03:09.785Z,99742.00
2019-02-04T16:05:38.701Z,99735.35
2019-02-04T16:08:07.502Z,99736.02
2019-02-04T16:10:36.372Z,99737.94
2019-02-04T16:13:05.447Z,99730.78
2019-02-04T16:15:34.236Z,99737.08
2019-02-04T16:18:03.468Z,99738.08
2019-02-04T16:20:32.245Z,99732.80
2019-02-04T16:23:01.113Z,99729.48
2019-02-04T16:25:30.034Z,99722.86
2019-02-04T16:27:58.908Z,99712.36
2019-02-04T16:30:27.843Z,99718.11
2019-02-04T16:32:57.104Z,99719.46
2019-02-04T16:35:25.885Z,99724.28
2019-02-04T16:37:54.871Z,99729.84
2019-02-04T16:40:23.974Z,99736.77
2019-02-04T16:42:53.626Z,99737.23
2019-02-04T16:45:23.491Z,99738.22
2019-02-04T16:47:52.628Z,99730.24
2019-02-04T16:50:23.915Z,99735.06
2019-02-04T16:52:52.760Z,99732.16
2019-02-04T16:55:21.705Z,99737.23
2019-02-04T16:57:50.560Z,99739.08
2019-02-04T17:00:22.169Z,99734.39
2019-02-04T17:02:51.046Z,99733.52
2019-02-04T17:05:20.703Z,99734.55
2019-02-04T17:07:49.706Z,99734.98
2019-02-04T17:10:19.849Z,99743.31
2019-02-04T17:12:48.977Z,99744.30
2019-02-04T17:15:17.913Z,99738.41
2019-02-04T17:17:47.072Z,99746.64
2019-02-04T17:20:19.116Z,99748.58
2019-02-04T17:22:47.905Z,99744.85
2019-02-04T17:25:16.776Z,99749.11
2019-02-04T17:27:45.629Z,99749.89
2019-02-04T17:30:17.526Z,99752.19
2019-02-04T17:32:46.403Z,99753.12
2019-02-04T17:35:15.457Z,99748.91
2019-02-04T17:37:44.392Z,99752.41
2019-02-04T17:40:16.302Z,99760.30
2019-02-04T17:42:45.336Z,99757.17
2019-02-04T17:45:15.452Z,99755.36
2019-02-04T17:47:44.955Z,99760.48
2019-02-04T17:50:15.347Z,99758.20
2019-02-04T17:52:44.479Z,99767.09
2019-02-04T17:55:16.389Z,99762.92
2019-02-04T17:57:45.260Z,99767.95
2019-02-04T18:00:20.760Z,99765.84
2019-02-04T18:02:49.698Z,99765.42
2019-02-04T18:05:18.896Z,99758.13
2019-02-04T18:07:47.833Z,99767.54
2019-02-04T18:10:17.146Z,99759.52
2019-02-04T18:12:46.444Z,99770.09
2019-02-04T18:15:17.461Z,99772.91
2019-02-04T18:17:46.562Z,99768.73
2019-02-04T18:20:16.616Z,99768.82
2019-02-04T18:22:45.660Z,99773.63
2019-02-04T18:25:15.494Z,99775.16
2019-02-04T18:27:44.425Z,99770.42
2019-02-04T18:30:16.083Z,99767.41
2019-02-04T18:32:45.176Z,99768.80
2019-02-04T18:35:14.792Z,99764.15
2019-02-04T18:37:43.732Z,99772.94
2019-02-04T18:40:14.568Z,99769.69
2019-02-04T18:42:43.681Z,99768.11
2019-02-04T18:45:15.950Z,99775.48
2019-02-04T18:47:44.892Z,99778.34
2019-02-04T18:50:15.389Z,99777.30
2019-02-04T18:52:44.733Z,99772.99
2019-02-04T18:55:16.441Z,99764.86
2019-02-04T18:57:45.519Z,99763.88
2019-02-04T19:00:17.460Z,99770.70
2019-02-04T19:02:46.401Z,99767.44
2019-02-04T19:05:15.629Z,99768.83
2019-02-04T19:07:44.520Z,99768.83
2019-02-04T19:10:14.891Z,99775.97
2019-02-04T19:12:43.812Z,99782.14
2019-02-04T19:15:15.467Z,99775.80
2019-02-04T19:17:44.423Z,99779.69
2019-02-04T19:20:15.758Z,99784.04
2019-02-04T19:22:44.615Z,99784.90
2019-02-04T19:25:14.433Z,99787.02
2019-02-04T19:27:43.253Z,99791.05
2019-02-04T19:30:30.043Z,99796.40
2019-02-04T19:32:59.212Z,99792.48
2019-02-04T19:35:29.036Z,99788.16
2019-02-04T19:37:57.901Z,99781.29
2019-02-04T19:40:26.754Z,99787.53
2019-02-04T19:42:55.628Z,99794.15
2019-02-04T19:45:24.646Z,99787.61
2019-02-04T19:47:53.784Z,99788.85
2019-02-04T19:50:28.080Z,99788.52
2019-02-04T19:52:57.044Z,99794.09
2019-02-04T19:55:26.182Z,99789.00
2019-02-04T19:57:55.135Z,99794.38
2019-02-04T20:00:24.290Z,99794.23
2019-02-04T20:02:53.252Z,99800.42
2019-02-04T20:05:22.998Z,99807.66
2019-02-04T20:07:52.392Z,99806.08
2019-02-04T20:10:23.883Z,99807.38
2019-02-04T20:12:52.824Z,99814.38
2019-02-04T20:15:26.719Z,99808.39
2019-02-04T20:17:55.646Z,99806.94
2019-02-04T20:20:25.537Z,99816.44
2019-02-04T20:22:54.887Z,99815.62
2019-02-04T20:25:25.805Z,99812.69
2019-02-04T20:27:54.673Z,99803.81
2019-02-04T20:30:26.582Z,99799.52
2019-02-04T20:32:55.439Z,99798.00
2019-02-04T20:35:24.373Z,99799.16
2019-02-04T20:37:53.465Z,99793.52
2019-02-04T20:40:22.674Z,99788.34
2019-02-04T20:42:51.701Z,99786.23
2019-02-04T20:45:22.422Z,99787.85
2019-02-04T20:47:51.336Z,99789.00
2019-02-04T20:50:28.793Z,99799.55
2019-02-04T20:52:57.725Z,99800.17
2019-02-04T20:55:26.726Z,99794.91
2019-02-04T20:57:55.618Z,99797.92
2019-02-04T21:00:26.326Z,99797.55
2019-02-04T21:02:55.177Z,99802.91
2019-02-04T21:05:24.516Z,99803.73
2019-02-04T21:07:53.457Z,99807.70
2019-02-04T21:10:23.782Z,99811.26
2019-02-04T21:12:53.225Z,99820.11
2019-02-04T21:15:22.743Z,99820.98
2019-02-04T21:17:51.850Z,99812.39
2019-02-04T21:20:22.471Z,99810.37
2019-02-04T21:22:51.267Z,99813.55
2019-02-04T21:25:20.456Z,99807.40
2019-02-04T21:27:49.951Z,99810.67
2019-02-04T21:30:24.429Z,99812.73
2019-02-04T21:32:53.359Z,99806.17
2019-02-04T21:35:22.419Z,99812.55
2019-02-04T21:37:51.257Z,99813.98
2019-02-04T21:40:20.605Z,99822.05
2019-02-04T21:42:49.676Z,99805.61
2019-02-04T21:45:19.901Z,99805.98
2019-02-04T21:47:48.781Z,99798.98
2019-02-04T21:50:19.669Z,99797.67
2019-02-04T21:52:48.611Z,99800.83
2019-02-04T21:55:18.490Z,99799.16
2019-02-04T21:57:47.656Z,99788.53
2019-02-04T22:02:39.208Z,99791.74
2019-02-04T22:05:10.413Z,99799.80
2019-02-04T22:07:39.372Z,99796.73
2019-02-04T22:10:12.230Z,99794.20
2019-02-04T22:12:41.081Z,99796.92
2019-02-04T22:15:10.055Z,99785.91
2019-02-04T22:17:38.834Z,99787.63
2019-02-04T22:20:08.734Z,99781.63
2019-02-04T22:22:37.553Z,99800.71
2019-02-04T22:25:06.848Z,99797.69
2019-02-04T22:27:35.923Z,99797.31
2019-02-04T22:30:06.806Z,99797.45
2019-02-04T22:32:35.883Z,99806.80
2019-02-04T22:35:05.433Z,99801.58
2019-02-04T22:37:34.436Z,99809.86
2019-02-04T22:40:03.530Z,99809.76
2019-02-04T22:42:32.309Z,99807.40
2019-02-04T22:45:01.110Z,99804.97
2019-02-04T22:47:29.892Z,99796.54
2019-02-04T22:49:58.681Z,99787.20
2019-02-04T22:52:27.542Z,99806.09
2019-02-04T22:54:56.397Z,99813.98
2019-02-04T22:57:25.257Z,99816.70
2019-02-04T22:59:54.216Z,99816.52
2019-02-04T23:02:23.159Z,99803.00
2019-02-04T23:04:51.963Z,99806.52
2019-02-04T23:07:20.825Z,99805.08
2019-02-04T23:09:49.609Z,99812.98
2019-02-04T23:12:18.575Z,99809.87
2019-02-04T23:14:47.671Z,99806.55
2019-02-04T23:17:16.460Z,99813.41
2019-02-04T23:19:45.303Z,99812.97
2019-02-04T23:22:14.278Z,99814.34
2019-02-04T23:24:43.068Z,99812.69
2019-02-04T23:27:11.874Z,99821.61
2019-02-04T23:29:40.842Z,99821.52
2019-02-04T23:32:09.638Z,99827.97
2019-02-04T23:34:38.672Z,99819.31
2019-02-04T23:37:07.550Z,99819.54
2019-02-04T23:39:36.338Z,99823.80
2019-02-04T23:42:05.289Z,99816.03
2019-02-04T23:44:34.586Z,99804.22
2019-02-04T23:47:03.469Z,99793.41
2019-02-04T23:49:32.355Z,99787.55
2019-02-04T23:52:01.232Z,99785.30
2019-02-04T23:54:30.006Z,99784.19
2019-02-04T23:56:58.807Z,99787.42
2019-02-04T23:59:28.038Z,99787.21
